sensor_id;sensor_type;location;lat;lon;timestamp;pressure;altitude;pressure_sealevel;temperature;humidity
55456;BME280;63021;52.836;6.376;2023-03-26T00:00:08;100682.13;;;7.77;75.31
55456;BME280;63021;52.836;6.376;2023-03-26T00:02:39;100686.16;;;7.71;75.29
55456;BME280;63021;52.836;6.376;2023-03-26T00:05:05;100685.19;;;7.72;75.67
55456;BME280;63021;52.836;6.376;2023-03-26T00:07:31;100697.00;;;7.68;75.73
55456;BME280;63021;52.836;6.376;2023-03-26T00:09:56;100696.44;;;7.65;76.10
55456;BME280;63021;52.836;6.376;2023-03-26T00:12:23;100706.91;;;7.66;75.58
55456;BME280;63021;52.836;6.376;2023-03-26T00:14:49;100702.56;;;7.65;75.11
55456;BME280;63021;52.836;6.376;2023-03-26T00:17:16;100713.31;;;7.63;75.43
55456;BME280;63021;52.836;6.376;2023-03-26T00:19:41;100710.78;;;7.62;75.59
55456;BME280;63021;52.836;6.376;2023-03-26T00:22:07;100711.06;;;7.59;76.20
55456;BME280;63021;52.836;6.376;2023-03-26T00:24:35;100715.75;;;7.55;75.81
55456;BME280;63021;52.836;6.376;2023-03-26T00:27:01;100708.22;;;7.51;75.80
55456;BME280;63021;52.836;6.376;2023-03-26T00:29:27;100719.63;;;7.51;75.52
55456;BME280;63021;52.836;6.376;2023-03-26T00:31:52;100702.97;;;7.39;75.40
55456;BME280;63021;52.836;6.376;2023-03-26T00:34:18;100713.31;;;7.42;75.35
55456;BME280;63021;52.836;6.376;2023-03-26T00:36:45;100713.56;;;7.39;76.09
55456;BME280;63021;52.836;6.376;2023-03-26T00:39:11;100713.84;;;7.36;75.73
55456;BME280;63021;52.836;6.376;2023-03-26T00:41:38;100707.25;;;7.31;75.58
55456;BME280;63021;52.836;6.376;2023-03-26T00:44:07;100698.97;;;7.24;75.30
55456;BME280;63021;52.836;6.376;2023-03-26T00:46:33;100708.75;;;7.23;76.03
55456;BME280;63021;52.836;6.376;2023-03-26T00:48:59;100713.19;;;7.23;75.95
55456;BME280;63021;52.836;6.376;2023-03-26T00:51:25;100714.16;;;7.22;75.38
55456;BME280;63021;52.836;6.376;2023-03-26T00:53:50;100717.06;;;7.19;75.13
55456;BME280;63021;52.836;6.376;2023-03-26T00:56:17;100718.16;;;7.16;75.86
55456;BME280;63021;52.836;6.376;2023-03-26T00:58:43;100716.59;;;7.14;75.57
55456;BME280;63021;52.836;6.376;2023-03-26T01:01:15;100702.47;;;7.03;75.32
55456;BME280;63021;52.836;6.376;2023-03-26T01:03:42;100709.19;;;7.07;76.29
55456;BME280;63021;52.836;6.376;2023-03-26T01:06:22;100704.53;;;7.00;76.12
55456;BME280;63021;52.836;6.376;2023-03-26T01:08:52;100711.34;;;7.02;75.83
55456;BME280;63021;52.836;6.376;2023-03-26T01:11:27;100699.13;;;7.01;75.59
55456;BME280;63021;52.836;6.376;2023-03-26T01:14:00;100696.47;;;7.01;76.06
55456;BME280;63021;52.836;6.376;2023-03-26T01:16:56;100705.09;;;7.03;76.00
55456;BME280;63021;52.836;6.376;2023-03-26T01:19:31;100687.78;;;6.99;75.59
55456;BME280;63021;52.836;6.376;2023-03-26T01:22:03;100686.84;;;7.00;75.96
55456;BME280;63021;52.836;6.376;2023-03-26T01:24:29;100686.00;;;7.00;76.30
55456;BME280;63021;52.836;6.376;2023-03-26T01:32:21;100687.31;;;7.05;75.49
55456;BME280;63021;52.836;6.376;2023-03-26T01:35:13;100683.09;;;7.03;76.19
55456;BME280;63021;52.836;6.376;2023-03-26T01:40:39;100688.25;;;7.04;76.22
55456;BME280;63021;52.836;6.376;2023-03-26T01:45:46;100677.81;;;7.03;75.68
55456;BME280;63021;52.836;6.376;2023-03-26T01:48:14;100674.06;;;7.05;76.28
55456;BME280;63021;52.836;6.376;2023-03-26T01:50:39;100672.25;;;7.06;76.34
55456;BME280;63021;52.836;6.376;2023-03-26T01:53:06;100666.97;;;7.06;75.93
55456;BME280;63021;52.836;6.376;2023-03-26T01:55:58;100666.81;;;7.07;75.75
55456;BME280;63021;52.836;6.376;2023-03-26T02:03:53;100658.88;;;7.07;75.51
55456;BME280;63021;52.836;6.376;2023-03-26T02:06:31;100654.81;;;7.03;75.70
55456;BME280;63021;52.836;6.376;2023-03-26T02:09:05;100659.03;;;7.06;75.87
55456;BME280;63021;52.836;6.376;2023-03-26T02:11:34;100663.34;;;7.07;76.21
55456;BME280;63021;52.836;6.376;2023-03-26T02:14:00;100658.06;;;7.07;76.32
55456;BME280;63021;52.836;6.376;2023-03-26T02:16:25;100656.25;;;7.07;76.58
55456;BME280;63021;52.836;6.376;2023-03-26T02:18:51;100647.47;;;7.07;75.43
55456;BME280;63021;52.836;6.376;2023-03-26T02:21:22;100649.25;;;7.06;75.72
55456;BME280;63021;52.836;6.376;2023-03-26T02:23:52;100639.75;;;7.04;75.90
55456;BME280;63021;52.836;6.376;2023-03-26T02:26:22;100647.69;;;7.04;76.04
55456;BME280;63021;52.836;6.376;2023-03-26T02:28:48;100647.97;;;7.01;75.80
55456;BME280;63021;52.836;6.376;2023-03-26T02:31:13;100649.91;;;6.99;76.43
55456;BME280;63021;52.836;6.376;2023-03-26T02:33:41;100645.56;;;6.98;75.93
55456;BME280;63021;52.836;6.376;2023-03-26T02:36:09;100644.63;;;6.99;75.76
55456;BME280;63021;52.836;6.376;2023-03-26T02:38:38;100638.47;;;6.98;75.83
55456;BME280;63021;52.836;6.376;2023-03-26T02:41:04;100629.56;;;6.99;75.42
55456;BME280;63021;52.836;6.376;2023-03-26T02:43:30;100633.06;;;7.00;75.93
55456;BME280;63021;52.836;6.376;2023-03-26T02:45:55;100620.19;;;6.95;75.66
55456;BME280;63021;52.836;6.376;2023-03-26T02:48:21;100622.50;;;7.00;76.10
55456;BME280;63021;52.836;6.376;2023-03-26T02:50:47;100617.19;;;7.00;76.12
55456;BME280;63021;52.836;6.376;2023-03-26T02:53:15;100612.00;;;6.98;76.27
55456;BME280;63021;52.836;6.376;2023-03-26T02:55:40;100614.66;;;6.98;75.97
55456;BME280;63021;52.836;6.376;2023-03-26T02:58:06;100603.63;;;6.93;75.49
55456;BME280;63021;52.836;6.376;2023-03-26T03:00:32;100601.94;;;6.92;75.76
55456;BME280;63021;52.836;6.376;2023-03-26T03:02:58;100607.22;;;6.92;76.10
55456;BME280;63021;52.836;6.376;2023-03-26T03:05:24;100604.97;;;6.87;75.65
55456;BME280;63021;52.836;6.376;2023-03-26T03:07:55;100605.81;;;6.88;75.96
55456;BME280;63021;52.836;6.376;2023-03-26T03:10:23;100601.50;;;6.87;75.61
55456;BME280;63021;52.836;6.376;2023-03-26T03:12:48;100600.91;;;6.83;76.23
55456;BME280;63021;52.836;6.376;2023-03-26T03:15:14;100596.00;;;6.79;76.28
55456;BME280;63021;52.836;6.376;2023-03-26T03:17:39;100592.78;;;6.75;75.24
55456;BME280;63021;52.836;6.376;2023-03-26T03:20:06;100593.16;;;6.70;75.25
55456;BME280;63021;52.836;6.376;2023-03-26T03:22:34;100582.97;;;6.66;75.46
55456;BME280;63021;52.836;6.376;2023-03-26T03:25:00;100580.72;;;6.61;75.85
55456;BME280;63021;52.836;6.376;2023-03-26T03:27:25;100576.66;;;6.57;76.21
55456;BME280;63021;52.836;6.376;2023-03-26T03:29:51;100585.78;;;6.53;75.68
55456;BME280;63021;52.836;6.376;2023-03-26T03:32:21;100576.56;;;6.47;75.66
55456;BME280;63021;52.836;6.376;2023-03-26T03:34:48;100577.22;;;6.39;76.13
55456;BME280;63021;52.836;6.376;2023-03-26T03:37:17;100578.41;;;6.35;75.37
55456;BME280;63021;52.836;6.376;2023-03-26T03:39:44;100577.94;;;6.30;76.13
55456;BME280;63021;52.836;6.376;2023-03-26T03:42:10;100585.31;;;6.27;76.72
55456;BME280;63021;52.836;6.376;2023-03-26T03:44:35;100588.56;;;6.19;76.13
55456;BME280;63021;52.836;6.376;2023-03-26T03:47:01;100587.13;;;6.15;76.20
55456;BME280;63021;52.836;6.376;2023-03-26T03:49:26;100578.88;;;6.08;75.86
55456;BME280;63021;52.836;6.376;2023-03-26T03:51:51;100562.28;;;5.95;75.91
55456;BME280;63021;52.836;6.376;2023-03-26T03:54:17;100580.47;;;5.99;76.22
55456;BME280;63021;52.836;6.376;2023-03-26T03:56:43;100583.22;;;5.98;76.73
55456;BME280;63021;52.836;6.376;2023-03-26T03:59:10;100585.00;;;5.97;76.45
55456;BME280;63021;52.836;6.376;2023-03-26T04:01:36;100583.41;;;5.95;76.52
55456;BME280;63021;52.836;6.376;2023-03-26T04:04:01;100584.16;;;5.97;77.04
55456;BME280;63021;52.836;6.376;2023-03-26T04:06:27;100578.03;;;5.96;76.09
55456;BME280;63021;52.836;6.376;2023-03-26T04:08:54;100575.47;;;5.95;75.97
55456;BME280;63021;52.836;6.376;2023-03-26T04:11:21;100577.06;;;5.97;76.28
55456;BME280;63021;52.836;6.376;2023-03-26T04:13:46;100577.94;;;5.98;76.43
55456;BME280;63021;52.836;6.376;2023-03-26T04:16:13;100580.47;;;5.99;76.60
55456;BME280;63021;52.836;6.376;2023-03-26T04:18:39;100564.34;;;5.91;76.32
55456;BME280;63021;52.836;6.376;2023-03-26T04:21:05;100579.13;;;6.05;75.92
55456;BME280;63021;52.836;6.376;2023-03-26T04:23:32;100579.00;;;6.06;75.96
55456;BME280;63021;52.836;6.376;2023-03-26T04:26:04;100580.78;;;6.06;76.39
55456;BME280;63021;52.836;6.376;2023-03-26T04:31:13;100580.06;;;6.04;76.41
55456;BME280;63021;52.836;6.376;2023-03-26T04:33:43;100575.03;;;6.01;76.33
55456;BME280;63021;52.836;6.376;2023-03-26T04:36:14;100567.13;;;6.01;76.01
55456;BME280;63021;52.836;6.376;2023-03-26T04:38:42;100572.16;;;6.04;76.60
55456;BME280;63021;52.836;6.376;2023-03-26T04:41:13;100566.75;;;6.05;76.67
55456;BME280;63021;52.836;6.376;2023-03-26T04:43:39;100564.78;;;6.07;75.79
55456;BME280;63021;52.836;6.376;2023-03-26T04:46:12;100563.25;;;6.05;76.72
55456;BME280;63021;52.836;6.376;2023-03-26T04:48:37;100568.41;;;6.06;76.77
55456;BME280;63021;52.836;6.376;2023-03-26T04:51:04;100574.78;;;6.04;77.31
55456;BME280;63021;52.836;6.376;2023-03-26T04:53:34;100574.78;;;6.04;76.46
55456;BME280;63021;52.836;6.376;2023-03-26T04:56:08;100571.06;;;6.06;77.17
55456;BME280;63021;52.836;6.376;2023-03-26T04:58:38;100577.19;;;6.07;76.63
55456;BME280;63021;52.836;6.376;2023-03-26T05:01:04;100568.41;;;6.06;76.99
55456;BME280;63021;52.836;6.376;2023-03-26T05:03:29;100566.59;;;6.07;76.53
55456;BME280;63021;52.836;6.376;2023-03-26T05:05:58;100554.59;;;6.03;76.96
55456;BME280;63021;52.836;6.376;2023-03-26T05:08:25;100562.03;;;6.09;76.47
55456;BME280;63021;52.836;6.376;2023-03-26T05:10:55;100561.94;;;6.11;76.77
55456;BME280;63021;52.836;6.376;2023-03-26T05:13:22;100555.66;;;6.12;76.61
55456;BME280;63021;52.836;6.376;2023-03-26T05:15:47;100557.34;;;6.13;76.69
55456;BME280;63021;52.836;6.376;2023-03-26T05:18:13;100560.59;;;6.16;77.11
55456;BME280;63021;52.836;6.376;2023-03-26T05:20:38;100567.53;;;6.17;76.72
55456;BME280;63021;52.836;6.376;2023-03-26T05:23:04;100559.47;;;6.19;76.85
55456;BME280;63021;52.836;6.376;2023-03-26T05:25:29;100553.38;;;6.18;76.66
55456;BME280;63021;52.836;6.376;2023-03-26T05:27:55;100553.09;;;6.21;76.56
55456;BME280;63021;52.836;6.376;2023-03-26T05:30:21;100551.28;;;6.22;76.84
55456;BME280;63021;52.836;6.376;2023-03-26T05:32:47;100546.88;;;6.22;76.51
55456;BME280;63021;52.836;6.376;2023-03-26T05:35:13;100549.38;;;6.24;77.22
55456;BME280;63021;52.836;6.376;2023-03-26T05:37:41;100555.09;;;6.29;76.49
55456;BME280;63021;52.836;6.376;2023-03-26T05:40:08;100549.72;;;6.31;76.92
55456;BME280;63021;52.836;6.376;2023-03-26T05:42:38;100548.75;;;6.32;76.48
55456;BME280;63021;52.836;6.376;2023-03-26T05:45:06;100539.97;;;6.31;77.15
55456;BME280;63021;52.836;6.376;2023-03-26T05:47:32;100549.47;;;6.34;76.60
55456;BME280;63021;52.836;6.376;2023-03-26T05:49:58;100553.75;;;6.35;77.24
55456;BME280;63021;52.836;6.376;2023-03-26T05:52:24;100555.31;;;6.37;77.24
55456;BME280;63021;52.836;6.376;2023-03-26T05:54:49;100542.22;;;6.36;76.68
55456;BME280;63021;52.836;6.376;2023-03-26T05:57:15;100549.78;;;6.40;76.77
55456;BME280;63021;52.836;6.376;2023-03-26T05:59:40;100541.41;;;6.35;77.32
55456;BME280;63021;52.836;6.376;2023-03-26T06:02:08;100547.88;;;6.43;77.11
55456;BME280;63021;52.836;6.376;2023-03-26T06:04:34;100555.66;;;6.44;76.43
55456;BME280;63021;52.836;6.376;2023-03-26T06:06:59;100550.25;;;6.46;76.99
55456;BME280;63021;52.836;6.376;2023-03-26T06:09:26;100549.16;;;6.48;77.05
55456;BME280;63021;52.836;6.376;2023-03-26T06:11:51;100546.38;;;6.50;76.88
55456;BME280;63021;52.836;6.376;2023-03-26T06:14:17;100539.88;;;6.54;76.97
55456;BME280;63021;52.836;6.376;2023-03-26T06:16:42;100526.78;;;6.52;77.00
55456;BME280;63021;52.836;6.376;2023-03-26T06:19:08;100533.38;;;6.58;76.64
55456;BME280;63021;52.836;6.376;2023-03-26T06:21:33;100529.03;;;6.57;77.32
55456;BME280;63021;52.836;6.376;2023-03-26T06:23:58;100528.50;;;6.63;77.19
55456;BME280;63021;52.836;6.376;2023-03-26T06:26:24;100528.25;;;6.66;77.28
55456;BME280;63021;52.836;6.376;2023-03-26T06:28:50;100532.44;;;6.69;76.67
55456;BME280;63021;52.836;6.376;2023-03-26T06:31:15;100531.22;;;6.73;76.50
55456;BME280;63021;52.836;6.376;2023-03-26T06:33:43;100522.19;;;6.75;76.34
55456;BME280;63021;52.836;6.376;2023-03-26T06:36:08;100515.91;;;6.76;76.91
55456;BME280;63021;52.836;6.376;2023-03-26T06:38:34;100525.28;;;6.81;76.42
55456;BME280;63021;52.836;6.376;2023-03-26T06:41:04;100531.97;;;6.85;77.05
55456;BME280;63021;52.836;6.376;2023-03-26T06:43:29;100513.03;;;6.80;76.26
55456;BME280;63021;52.836;6.376;2023-03-26T06:45:59;100518.50;;;6.88;75.98
55456;BME280;63021;52.836;6.376;2023-03-26T06:48:24;100525.34;;;6.90;76.54
55456;BME280;63021;52.836;6.376;2023-03-26T06:50:50;100520.03;;;6.90;76.79
55456;BME280;63021;52.836;6.376;2023-03-26T06:53:15;100504.28;;;6.89;76.77
55456;BME280;63021;52.836;6.376;2023-03-26T06:55:40;100511.56;;;6.97;76.68
55456;BME280;63021;52.836;6.376;2023-03-26T06:58:06;100507.81;;;6.99;76.73
55456;BME280;63021;52.836;6.376;2023-03-26T07:00:31;100509.25;;;7.03;77.34
55456;BME280;63021;52.836;6.376;2023-03-26T07:02:56;100503.00;;;7.04;77.40
55456;BME280;63021;52.836;6.376;2023-03-26T07:05:22;100506.31;;;7.06;76.73
55456;BME280;63021;52.836;6.376;2023-03-26T07:07:47;100497.28;;;7.09;77.17
55456;BME280;63021;52.836;6.376;2023-03-26T07:10:13;100500.38;;;7.14;77.35
55456;BME280;63021;52.836;6.376;2023-03-26T07:12:39;100493.53;;;7.11;76.86
55456;BME280;63021;52.836;6.376;2023-03-26T07:15:06;100496.88;;;7.14;77.44
55456;BME280;63021;52.836;6.376;2023-03-26T07:17:31;100494.97;;;7.16;77.64
55456;BME280;63021;52.836;6.376;2023-03-26T07:19:56;100493.97;;;7.17;77.06
55456;BME280;63021;52.836;6.376;2023-03-26T07:22:23;100484.22;;;7.17;76.63
55456;BME280;63021;52.836;6.376;2023-03-26T07:24:49;100476.16;;;7.19;76.97
55456;BME280;63021;52.836;6.376;2023-03-26T07:27:32;100477.84;;;7.20;76.34
55456;BME280;63021;52.836;6.376;2023-03-26T07:32:36;100485.06;;;7.18;76.56
55456;BME280;63021;52.836;6.376;2023-03-26T07:35:29;100478.50;;;7.12;75.34
55456;BME280;63021;52.836;6.376;2023-03-26T07:41:34;100481.19;;;7.22;75.12
55456;BME280;63021;52.836;6.376;2023-03-26T07:44:10;100486.06;;;7.26;74.51
55456;BME280;63021;52.836;6.376;2023-03-26T07:46:42;100491.94;;;7.30;74.17
55456;BME280;63021;52.836;6.376;2023-03-26T07:49:10;100494.31;;;7.33;74.75
55456;BME280;63021;52.836;6.376;2023-03-26T07:51:36;100495.41;;;7.31;74.46
55456;BME280;63021;52.836;6.376;2023-03-26T07:54:02;100499.47;;;7.35;73.52
55456;BME280;63021;52.836;6.376;2023-03-26T07:56:36;100493.22;;;7.36;73.25
55456;BME280;63021;52.836;6.376;2023-03-26T08:07:37;100491.69;;;7.43;73.00
55456;BME280;63021;52.836;6.376;2023-03-26T08:10:19;100496.59;;;7.48;73.37
55456;BME280;63021;52.836;6.376;2023-03-26T08:16:02;100508.88;;;7.49;72.56
55456;BME280;63021;52.836;6.376;2023-03-26T08:18:45;100507.47;;;7.44;71.72
55456;BME280;63021;52.836;6.376;2023-03-26T08:21:34;100499.06;;;7.39;71.65
55456;BME280;63021;52.836;6.376;2023-03-26T08:24:33;100505.09;;;7.41;71.14
55456;BME280;63021;52.836;6.376;2023-03-26T08:27:36;100516.63;;;7.40;71.42
55456;BME280;63021;52.836;6.376;2023-03-26T08:30:08;100506.19;;;7.39;70.79
55456;BME280;63021;52.836;6.376;2023-03-26T08:32:35;100510.63;;;7.38;70.67
55456;BME280;63021;52.836;6.376;2023-03-26T08:35:01;100495.59;;;7.39;70.75
55456;BME280;63021;52.836;6.376;2023-03-26T08:37:29;100499.66;;;7.43;70.89
55456;BME280;63021;52.836;6.376;2023-03-26T08:39:54;100493.81;;;7.49;70.46
55456;BME280;63021;52.836;6.376;2023-03-26T09:20:03;100516.22;;;8.25;68.16
55456;BME280;63021;52.836;6.376;2023-03-26T09:31:22;100519.00;;;8.23;66.44
55456;BME280;63021;52.836;6.376;2023-03-26T09:33:53;100516.22;;;8.25;66.46
55456;BME280;63021;52.836;6.376;2023-03-26T09:39:16;100516.91;;;8.27;65.77
55456;BME280;63021;52.836;6.376;2023-03-26T09:44:42;100512.84;;;8.32;65.27
55456;BME280;63021;52.836;6.376;2023-03-26T09:50:23;100519.97;;;8.32;65.37
55456;BME280;63021;52.836;6.376;2023-03-26T10:06:40;100525.84;;;8.55;64.18
55456;BME280;63021;52.836;6.376;2023-03-26T10:09:28;100520.56;;;8.55;63.48
55456;BME280;63021;52.836;6.376;2023-03-26T10:12:36;100524.31;;;8.53;62.96
55456;BME280;63021;52.836;6.376;2023-03-26T10:21:00;100526.41;;;8.59;63.47
55456;BME280;63021;52.836;6.376;2023-03-26T10:40:13;100519.66;;;8.74;61.96
55456;BME280;63021;52.836;6.376;2023-03-26T10:42:58;100541.03;;;8.82;61.79
55456;BME280;63021;52.836;6.376;2023-03-26T10:54:10;100530.94;;;8.96;61.66
55456;BME280;63021;52.836;6.376;2023-03-26T10:56:47;100530.19;;;9.04;61.85
55456;BME280;63021;52.836;6.376;2023-03-26T10:59:15;100523.91;;;9.05;60.85
55456;BME280;63021;52.836;6.376;2023-03-26T11:10:08;100532.66;;;9.25;60.72
55456;BME280;63021;52.836;6.376;2023-03-26T11:15:53;100535.41;;;9.33;60.18
55456;BME280;63021;52.836;6.376;2023-03-26T11:18:35;100532.31;;;9.38;59.23
55456;BME280;63021;52.836;6.376;2023-03-26T11:32:45;100540.59;;;9.34;58.64
55456;BME280;63021;52.836;6.376;2023-03-26T11:35:43;100549.69;;;9.32;58.74
55456;BME280;63021;52.836;6.376;2023-03-26T11:38:32;100549.97;;;9.29;58.45
55456;BME280;63021;52.836;6.376;2023-03-26T11:41:02;100548.44;;;9.26;59.27
55456;BME280;63021;52.836;6.376;2023-03-26T11:43:32;100548.00;;;9.31;59.26
55456;BME280;63021;52.836;6.376;2023-03-26T11:46:05;100555.97;;;9.31;58.72
55456;BME280;63021;52.836;6.376;2023-03-26T11:48:37;100555.44;;;9.27;58.23
55456;BME280;63021;52.836;6.376;2023-03-26T11:51:07;100550.94;;;9.28;58.41
55456;BME280;63021;52.836;6.376;2023-03-26T11:53:35;100561.88;;;9.25;58.00
55456;BME280;63021;52.836;6.376;2023-03-26T11:58:57;100564.97;;;9.20;58.47
55456;BME280;63021;52.836;6.376;2023-03-26T12:01:28;100555.91;;;9.13;58.41
55456;BME280;63021;52.836;6.376;2023-03-26T12:04:01;100568.22;;;9.14;57.80
55456;BME280;63021;52.836;6.376;2023-03-26T12:06:28;100566.66;;;9.11;58.80
55456;BME280;63021;52.836;6.376;2023-03-26T12:08:54;100565.69;;;9.12;58.47
55456;BME280;63021;52.836;6.376;2023-03-26T12:11:24;100559.09;;;9.16;59.62
55456;BME280;63021;52.836;6.376;2023-03-26T12:13:58;100567.91;;;9.17;58.48
55456;BME280;63021;52.836;6.376;2023-03-26T12:16:25;100563.31;;;9.09;57.88
55456;BME280;63021;52.836;6.376;2023-03-26T12:19:16;100576.59;;;9.09;57.77
55456;BME280;63021;52.836;6.376;2023-03-26T12:21:50;100578.13;;;9.02;57.92
55456;BME280;63021;52.836;6.376;2023-03-26T12:24:29;100574.25;;;8.96;58.30
55456;BME280;63021;52.836;6.376;2023-03-26T12:27:01;100579.44;;;8.88;58.67
55456;BME280;63021;52.836;6.376;2023-03-26T12:29:57;100584.91;;;8.87;58.65
55456;BME280;63021;52.836;6.376;2023-03-26T12:32:24;100591.19;;;8.86;58.89
55456;BME280;63021;52.836;6.376;2023-03-26T12:34:56;100585.06;;;8.75;57.79
55456;BME280;63021;52.836;6.376;2023-03-26T12:37:51;100594.66;;;8.76;58.65
55456;BME280;63021;52.836;6.376;2023-03-26T12:40:31;100596.09;;;8.71;57.57
55456;BME280;63021;52.836;6.376;2023-03-26T12:43:03;100592.88;;;8.67;58.16
55456;BME280;63021;52.836;6.376;2023-03-26T12:45:41;100598.47;;;8.64;57.91
55456;BME280;63021;52.836;6.376;2023-03-26T12:48:10;100590.22;;;8.57;57.75
55456;BME280;63021;52.836;6.376;2023-03-26T12:50:56;100600.41;;;8.62;57.91
55456;BME280;63021;52.836;6.376;2023-03-26T12:53:40;100599.44;;;8.63;58.46
55456;BME280;63021;52.836;6.376;2023-03-26T12:58:56;100596.38;;;8.48;57.51
55456;BME280;63021;52.836;6.376;2023-03-26T13:04:25;100613.28;;;8.57;57.98
55456;BME280;63021;52.836;6.376;2023-03-26T13:07:00;100604.47;;;8.56;57.75
55456;BME280;63021;52.836;6.376;2023-03-26T13:18:05;100617.03;;;8.64;57.58
55456;BME280;63021;52.836;6.376;2023-03-26T13:20:56;100616.63;;;8.69;57.23
55456;BME280;63021;52.836;6.376;2023-03-26T13:26:32;100609.47;;;8.79;56.79
55456;BME280;63021;52.836;6.376;2023-03-26T13:42:56;100628.78;;;8.81;56.29
55456;BME280;63021;52.836;6.376;2023-03-26T13:48:15;100621.63;;;8.81;56.26
55456;BME280;63021;52.836;6.376;2023-03-26T13:50:50;100619.28;;;8.78;56.25
55456;BME280;63021;52.836;6.376;2023-03-26T13:53:24;100623.47;;;8.81;56.20
55456;BME280;63021;52.836;6.376;2023-03-26T13:55:57;100628.63;;;8.82;55.41
55456;BME280;63021;52.836;6.376;2023-03-26T13:58:45;100630.72;;;8.79;55.04
55456;BME280;63021;52.836;6.376;2023-03-26T14:01:22;100647.06;;;8.74;55.20
55456;BME280;63021;52.836;6.376;2023-03-26T14:04:04;100645.38;;;8.73;55.63
55456;BME280;63021;52.836;6.376;2023-03-26T14:09:30;100655.31;;;8.71;55.36
55456;BME280;63021;52.836;6.376;2023-03-26T14:14:50;100653.38;;;8.63;54.21
55456;BME280;63021;52.836;6.376;2023-03-26T14:17:27;100653.63;;;8.60;54.68
55456;BME280;63021;52.836;6.376;2023-03-26T14:34:38;100652.94;;;8.78;53.44
55456;BME280;63021;52.836;6.376;2023-03-26T14:39:53;100664.69;;;8.75;53.80
55456;BME280;63021;52.836;6.376;2023-03-26T14:53:05;100674.09;;;8.39;52.93
55456;BME280;63021;52.836;6.376;2023-03-26T15:15:10;100709.22;;;8.21;53.79
55456;BME280;63021;52.836;6.376;2023-03-26T15:43:22;100751.88;;;7.77;53.73
55456;BME280;63021;52.836;6.376;2023-03-26T15:49:23;100765.13;;;7.77;52.79
55456;BME280;63021;52.836;6.376;2023-03-26T15:51:57;100753.50;;;7.69;52.56
55456;BME280;63021;52.836;6.376;2023-03-26T15:57:30;100772.13;;;7.57;51.52
55456;BME280;63021;52.836;6.376;2023-03-26T16:06:10;100778.03;;;7.50;52.93
55456;BME280;63021;52.836;6.376;2023-03-26T16:09:11;100782.78;;;7.46;53.96
55456;BME280;63021;52.836;6.376;2023-03-26T16:17:02;100804.16;;;7.33;54.66
55456;BME280;63021;52.836;6.376;2023-03-26T16:19:33;100796.31;;;7.32;54.69
55456;BME280;63021;52.836;6.376;2023-03-26T16:22:05;100808.22;;;7.37;55.72
55456;BME280;63021;52.836;6.376;2023-03-26T16:24:38;100810.00;;;7.37;54.10
55456;BME280;63021;52.836;6.376;2023-03-26T16:33:22;100826.44;;;7.19;54.80
55456;BME280;63021;52.836;6.376;2023-03-26T16:41:31;100838.06;;;7.07;54.05
55456;BME280;63021;52.836;6.376;2023-03-26T16:49:42;100848.53;;;7.08;54.46
55456;BME280;63021;52.836;6.376;2023-03-26T16:55:05;100868.84;;;7.08;54.98
55456;BME280;63021;52.836;6.376;2023-03-26T17:03:32;100882.09;;;6.97;54.61
55456;BME280;63021;52.836;6.376;2023-03-26T17:06:24;100877.91;;;6.94;53.76
55456;BME280;63021;52.836;6.376;2023-03-26T17:11:59;100898.97;;;6.84;54.33
55456;BME280;63021;52.836;6.376;2023-03-26T17:22:38;100926.47;;;6.59;53.35
55456;BME280;63021;52.836;6.376;2023-03-26T17:33:38;100946.78;;;6.36;54.31
55456;BME280;63021;52.836;6.376;2023-03-26T17:41:08;100951.16;;;6.13;54.20
55456;BME280;63021;52.836;6.376;2023-03-26T17:43:47;100958.56;;;6.07;55.08
55456;BME280;63021;52.836;6.376;2023-03-26T17:46:36;100972.25;;;6.01;54.43
55456;BME280;63021;52.836;6.376;2023-03-26T17:49:15;100966.06;;;5.89;55.15
55456;BME280;63021;52.836;6.376;2023-03-26T17:51:49;100971.47;;;5.88;54.38
55456;BME280;63021;52.836;6.376;2023-03-26T17:54:26;100980.78;;;5.81;55.67
55456;BME280;63021;52.836;6.376;2023-03-26T17:56:54;100986.31;;;5.78;54.87
55456;BME280;63021;52.836;6.376;2023-03-26T17:59:22;100990.00;;;5.75;55.45
55456;BME280;63021;52.836;6.376;2023-03-26T18:01:52;100998.16;;;5.72;55.49
55456;BME280;63021;52.836;6.376;2023-03-26T18:04:34;100997.66;;;5.67;56.11
55456;BME280;63021;52.836;6.376;2023-03-26T18:18:56;101022.97;;;5.45;56.57
55456;BME280;63021;52.836;6.376;2023-03-26T18:21:29;101023.50;;;5.37;56.86
55456;BME280;63021;52.836;6.376;2023-03-26T18:23:57;101031.31;;;5.39;56.68
55456;BME280;63021;52.836;6.376;2023-03-26T18:26:42;101038.59;;;5.35;57.16
55456;BME280;63021;52.836;6.376;2023-03-26T18:29:14;101044.09;;;5.32;56.52
55456;BME280;63021;52.836;6.376;2023-03-26T18:31:47;101044.31;;;5.29;56.99
55456;BME280;63021;52.836;6.376;2023-03-26T18:34:17;101047.41;;;5.23;57.63
55456;BME280;63021;52.836;6.376;2023-03-26T18:39:40;101063.41;;;5.20;56.83
55456;BME280;63021;52.836;6.376;2023-03-26T18:42:18;101064.63;;;5.16;57.53
55456;BME280;63021;52.836;6.376;2023-03-26T18:44:48;101073.47;;;5.15;57.30
55456;BME280;63021;52.836;6.376;2023-03-26T18:47:18;101071.16;;;5.10;57.37
55456;BME280;63021;52.836;6.376;2023-03-26T18:49:46;101073.91;;;5.09;58.28
55456;BME280;63021;52.836;6.376;2023-03-26T18:52:14;101083.59;;;5.08;58.54
55456;BME280;63021;52.836;6.376;2023-03-26T18:54:41;101077.50;;;5.08;58.77
55456;BME280;63021;52.836;6.376;2023-03-26T18:57:10;101086.56;;;5.03;58.23
55456;BME280;63021;52.836;6.376;2023-03-26T18:59:43;101083.31;;;5.00;59.14
55456;BME280;63021;52.836;6.376;2023-03-26T19:02:12;101094.78;;;4.99;59.00
55456;BME280;63021;52.836;6.376;2023-03-26T19:04:41;101101.00;;;4.98;58.55
55456;BME280;63021;52.836;6.376;2023-03-26T19:07:13;101108.09;;;4.97;58.84
55456;BME280;63021;52.836;6.376;2023-03-26T19:09:41;101106.50;;;4.95;59.04
55456;BME280;63021;52.836;6.376;2023-03-26T19:12:21;101108.47;;;4.91;58.24
55456;BME280;63021;52.836;6.376;2023-03-26T19:15:14;101109.66;;;4.87;58.96
55456;BME280;63021;52.836;6.376;2023-03-26T19:17:41;101113.47;;;4.83;58.94